createdAt,value
2022-10-23T00:01:26.475Z,79.32
2022-10-23T00:03:58.593Z,79.02
2022-10-23T00:06:27.995Z,79.31
2022-10-23T00:08:56.934Z,79.23
2022-10-23T00:11:27.732Z,79.12
2022-10-23T00:13:57.704Z,79.35
2022-10-23T00:16:26.697Z,79.29
2022-10-23T00:18:56.508Z,79.25
2022-10-23T00:21:25.783Z,79.08
2022-10-23T00:23:54.241Z,79.63
2022-10-23T00:26:22.616Z,79.58
2022-10-23T00:28:53.122Z,79.03
2022-10-23T00:31:22.573Z,79.54
2022-10-23T00:33:51.732Z,79.39
2022-10-23T00:36:22.562Z,79.76
2022-10-23T00:38:52.129Z,79.10
2022-10-23T00:41:22.821Z,79.63
2022-10-23T00:44:01.024Z,79.26
2022-10-23T00:46:29.626Z,79.00
2022-10-23T00:48:58.383Z,79.59
2022-10-23T00:51:30.384Z,79.60
2022-10-23T00:54:22.841Z,79.50
2022-10-23T00:56:49.523Z,79.80
2022-10-23T00:59:17.973Z,79.11
2022-10-23T01:01:46.975Z,79.04
2022-10-23T01:04:15.549Z,79.37
2022-10-23T01:06:52.131Z,79.80
2022-10-23T01:09:25.552Z,79.64
2022-10-23T01:11:57.517Z,79.66
2022-10-23T01:14:31.127Z,79.85
2022-10-23T01:17:04.386Z,79.61
2022-10-23T01:19:45.794Z,80.17
2022-10-23T01:22:29.766Z,79.85
2022-10-23T01:24:59.981Z,79.88
2022-10-23T01:27:33.179Z,79.76
2022-10-23T01:30:07.112Z,80.18
2022-10-23T01:32:46.113Z,80.23
2022-10-23T01:35:17.577Z,79.63
2022-10-23T01:37:52.817Z,79.03
2022-10-23T01:40:25.105Z,79.31
2022-10-23T01:42:57.034Z,79.33
2022-10-23T01:45:31.792Z,79.68
2022-10-23T01:48:02.610Z,80.07
2022-10-23T01:50:31.923Z,79.70
2022-10-23T01:53:11.190Z,79.82
2022-10-23T01:58:17.012Z,80.90
2022-10-23T02:00:46.859Z,81.14
2022-10-23T02:03:17.748Z,80.89
2022-10-23T02:05:46.293Z,81.76
2022-10-23T02:08:15.064Z,82.09
2022-10-23T02:10:49.342Z,81.90
2022-10-23T02:13:26.766Z,82.14
2022-10-23T02:16:02.362Z,81.80
2022-10-23T02:18:38.137Z,81.95
2022-10-23T02:21:10.847Z,82.12
2022-10-23T02:23:41.877Z,82.29
2022-10-23T02:26:17.358Z,81.81
2022-10-23T02:28:57.992Z,81.70
2022-10-23T02:31:26.588Z,81.53
2022-10-23T02:33:55.184Z,81.57
2022-10-23T02:36:23.812Z,81.23
2022-10-23T02:38:52.547Z,81.96
2022-10-23T02:41:33.305Z,81.87
2022-10-23T02:44:19.711Z,82.04
2022-10-23T02:46:52.647Z,82.02
2022-10-23T02:49:24.844Z,82.69
2022-10-23T02:52:04.361Z,82.93
2022-10-23T02:54:51.994Z,83.04
2022-10-23T02:57:24.922Z,82.44
2022-10-23T03:00:02.743Z,83.18
2022-10-23T03:02:35.273Z,82.63
2022-10-23T03:05:05.144Z,82.92
2022-10-23T03:07:34.413Z,83.26
2022-10-23T03:10:08.718Z,83.49
2022-10-23T03:12:38.078Z,83.03
2022-10-23T03:15:10.151Z,83.15
2022-10-23T03:17:38.610Z,83.49
2022-10-23T03:20:07.985Z,83.13
2022-10-23T03:22:37.360Z,83.42
2022-10-23T03:25:06.681Z,84.04
2022-10-23T03:27:36.697Z,83.47
2022-10-23T03:30:10.367Z,83.85
2022-10-23T03:32:41.207Z,83.61
2022-10-23T03:35:10.105Z,84.19
2022-10-23T03:37:39.039Z,83.56
2022-10-23T03:40:08.702Z,84.36
2022-10-23T03:42:37.080Z,84.21
2022-10-23T03:45:06.138Z,84.32
2022-10-23T03:47:41.112Z,83.84
2022-10-23T03:50:10.936Z,84.38
2022-10-23T03:52:39.627Z,83.92
2022-10-23T03:55:09.314Z,84.01
2022-10-23T03:57:38.313Z,84.22
2022-10-23T04:00:08.273Z,84.39
2022-10-23T04:02:46.487Z,84.39
2022-10-23T04:05:15.466Z,84.77
2022-10-23T04:07:53.349Z,85.05
2022-10-23T04:10:21.844Z,85.18
2022-10-23T04:12:50.227Z,84.87
2022-10-23T04:15:18.749Z,85.09
2022-10-23T04:17:49.377Z,85.34
2022-10-23T04:20:17.928Z,85.23
2022-10-23T04:22:46.539Z,85.33
2022-10-23T04:25:16.689Z,85.29
2022-10-23T04:27:46.076Z,85.54
2022-10-23T04:30:15.048Z,85.38
2022-10-23T04:32:43.526Z,85.88
2022-10-23T04:35:13.333Z,85.94
2022-10-23T04:37:41.848Z,85.57
2022-10-23T04:40:11.135Z,85.92
2022-10-23T04:42:40.970Z,85.81
2022-10-23T04:45:09.873Z,85.42
2022-10-23T04:47:38.721Z,85.21
2022-10-23T04:50:08.213Z,85.90
2022-10-23T04:52:58.898Z,85.51
2022-10-23T04:55:50.524Z,84.80
2022-10-23T04:58:25.193Z,85.34
2022-10-23T05:00:54.434Z,84.88
2022-10-23T05:03:26.910Z,84.85
2022-10-23T05:05:56.746Z,85.34
2022-10-23T05:08:26.716Z,85.22
2022-10-23T05:11:13.694Z,85.49
2022-10-23T05:13:46.609Z,85.59
2022-10-23T05:16:27.755Z,85.43
2022-10-23T05:18:56.146Z,85.15
2022-10-23T05:21:26.728Z,85.42
2022-10-23T05:23:57.491Z,85.00
2022-10-23T05:26:26.421Z,84.35
2022-10-23T05:28:54.978Z,83.93
2022-10-23T05:31:25.842Z,83.49
2022-10-23T05:33:58.357Z,83.18
2022-10-23T05:36:27.052Z,82.74
2022-10-23T05:39:01.142Z,82.31
2022-10-23T05:41:29.559Z,82.26
2022-10-23T05:44:00.021Z,81.97
2022-10-23T05:46:46.782Z,81.28
2022-10-23T05:49:33.711Z,79.76
2022-10-23T05:52:34.464Z,79.50
2022-10-23T05:55:19.716Z,79.42
2022-10-23T05:58:07.400Z,79.24
2022-10-23T06:01:17.513Z,78.99
2022-10-23T06:04:06.859Z,78.92
2022-10-23T06:07:07.606Z,78.72
2022-10-23T06:09:36.071Z,78.64
2022-10-23T06:12:06.440Z,78.07
2022-10-23T06:14:35.380Z,77.95
2022-10-23T06:17:04.122Z,78.10
2022-10-23T06:19:40.871Z,77.36
2022-10-23T06:22:09.353Z,77.73
2022-10-23T06:24:59.818Z,77.21
2022-10-23T06:27:30.468Z,76.42
2022-10-23T06:29:58.824Z,76.62
2022-10-23T06:32:32.748Z,76.58
2022-10-23T06:35:11.197Z,76.17
2022-10-23T06:37:40.056Z,76.30
2022-10-23T06:40:19.744Z,75.69
2022-10-23T06:43:10.959Z,75.66
2022-10-23T06:46:02.277Z,75.61
2022-10-23T06:49:02.647Z,75.52
2022-10-23T06:51:34.766Z,75.13
2022-10-23T06:54:03.111Z,74.61
2022-10-23T06:56:54.593Z,74.13
2022-10-23T06:59:32.404Z,74.21
2022-10-23T07:02:01.855Z,73.78
2022-10-23T07:04:30.345Z,74.25
2022-10-23T07:06:59.632Z,74.14
2022-10-23T07:09:36.919Z,73.68
2022-10-23T07:12:13.995Z,73.93
2022-10-23T07:14:50.391Z,73.88
2022-10-23T07:17:18.889Z,74.18
2022-10-23T07:19:47.990Z,73.59
2022-10-23T07:22:17.265Z,73.42
2022-10-23T07:25:06.756Z,73.55
2022-10-23T07:27:41.126Z,73.10
2022-10-23T07:30:14.406Z,73.08
2022-10-23T07:32:50.671Z,73.37
2022-10-23T07:35:28.187Z,73.29
2022-10-23T07:38:04.831Z,73.71
2022-10-23T07:40:36.776Z,74.13
2022-10-23T07:43:05.991Z,74.02
2022-10-23T07:45:35.848Z,72.92
2022-10-23T07:48:11.750Z,73.46
2022-10-23T07:51:08.624Z,73.40
2022-10-23T07:53:41.645Z,72.91
2022-10-23T07:56:30.301Z,72.35
2022-10-23T07:59:17.716Z,72.77
2022-10-23T08:01:56.659Z,72.94
2022-10-23T08:04:38.929Z,73.43
2022-10-23T08:07:25.945Z,73.27
2022-10-23T08:09:57.503Z,72.99
2022-10-23T08:12:27.038Z,72.95
2022-10-23T08:14:56.558Z,72.61
2022-10-23T08:17:29.217Z,72.50
2022-10-23T08:20:14.801Z,72.30
2022-10-23T08:22:45.692Z,72.07
2022-10-23T08:25:24.698Z,71.94
2022-10-23T08:27:54.753Z,72.04
2022-10-23T08:30:23.418Z,73.06
2022-10-23T08:32:53.272Z,73.59
2022-10-23T08:35:22.210Z,74.26
2022-10-23T08:37:51.018Z,74.59
2022-10-23T08:40:23.426Z,74.38
2022-10-23T08:43:17.567Z,73.96
2022-10-23T08:46:05.117Z,73.90
2022-10-23T08:49:00.027Z,74.23
2022-10-23T08:52:04.694Z,74.46
2022-10-23T08:54:40.444Z,75.24
2022-10-23T08:57:14.146Z,75.89
2022-10-23T08:59:47.948Z,75.82
2022-10-23T09:02:19.789Z,75.98
2022-10-23T09:04:50.741Z,76.05
2022-10-23T09:07:29.731Z,75.93
2022-10-23T09:10:05.500Z,75.75
2022-10-23T09:12:33.916Z,75.45
2022-10-23T09:15:21.040Z,74.75
2022-10-23T09:17:51.170Z,74.63
2022-10-23T09:20:25.894Z,74.34
2022-10-23T09:22:59.604Z,74.26
2022-10-23T09:25:30.044Z,73.97
2022-10-23T09:28:02.916Z,73.66
2022-10-23T09:30:36.409Z,74.02
2022-10-23T09:33:15.779Z,73.90
2022-10-23T09:35:56.320Z,74.36
2022-10-23T09:38:29.284Z,74.37
2022-10-23T09:40:59.402Z,74.20
2022-10-23T09:43:28.828Z,74.07
2022-10-23T09:46:05.195Z,74.06
2022-10-23T09:48:42.476Z,74.01
2022-10-23T09:51:21.037Z,74.25
2022-10-23T09:53:51.718Z,74.38
2022-10-23T09:56:28.294Z,74.63
2022-10-23T09:58:58.672Z,75.58
2022-10-23T10:01:28.976Z,76.02
2022-10-23T10:04:06.707Z,76.02
2022-10-23T10:06:37.542Z,76.50
2022-10-23T10:09:09.877Z,77.08
2022-10-23T10:11:42.873Z,77.07
2022-10-23T10:14:28.557Z,77.70
2022-10-23T10:17:01.012Z,77.65
2022-10-23T10:19:41.101Z,77.72
2022-10-23T10:22:19.040Z,77.80
2022-10-23T10:24:50.977Z,78.22
2022-10-23T10:27:30.400Z,78.53
2022-10-23T10:30:06.074Z,78.71
2022-10-23T10:32:40.580Z,78.18
2022-10-23T10:35:21.673Z,78.39
2022-10-23T10:38:14.076Z,78.44
2022-10-23T10:40:44.199Z,78.31
2022-10-23T10:43:25.829Z,78.34
2022-10-23T10:45:59.139Z,78.53
2022-10-23T10:48:40.863Z,78.38
2022-10-23T10:51:46.070Z,78.20
2022-10-23T10:54:37.636Z,78.15
2022-10-23T10:57:12.908Z,78.08
2022-10-23T10:59:45.900Z,77.81
2022-10-23T11:02:25.346Z,78.42
2022-10-23T11:04:58.416Z,78.65
2022-10-23T11:07:35.635Z,79.39
2022-10-23T11:10:22.646Z,79.72
2022-10-23T11:12:51.472Z,79.70
2022-10-23T11:15:22.303Z,79.62
2022-10-23T11:17:52.469Z,79.61
2022-10-23T11:20:33.099Z,79.72
2022-10-23T11:23:09.940Z,79.59
2022-10-23T11:25:56.665Z,79.50
2022-10-23T11:28:35.539Z,80.55
2022-10-23T11:31:13.501Z,80.29
2022-10-23T11:34:02.953Z,80.03
2022-10-23T11:36:44.063Z,80.50
2022-10-23T11:39:30.860Z,80.44
2022-10-23T11:42:17.424Z,81.21
2022-10-23T11:44:47.001Z,81.26
2022-10-23T11:47:37.983Z,81.72
2022-10-23T11:50:27.017Z,81.69
2022-10-23T11:53:17.107Z,81.96
2022-10-23T11:56:06.862Z,81.85
2022-10-23T11:58:45.324Z,81.95
2022-10-23T12:01:30.084Z,81.72
2022-10-23T12:04:01.033Z,81.47
2022-10-23T12:06:32.342Z,81.80
2022-10-23T12:09:03.551Z,81.32
2022-10-23T12:11:44.069Z,81.55
2022-10-23T12:14:29.298Z,81.36
2022-10-23T12:16:57.742Z,80.96
2022-10-23T12:19:27.790Z,80.92
2022-10-23T12:21:59.174Z,81.39
2022-10-23T12:24:39.932Z,81.86
2022-10-23T12:27:18.165Z,81.94
2022-10-23T12:30:05.579Z,81.89
2022-10-23T12:32:48.243Z,82.08
2022-10-23T12:35:49.396Z,82.37
2022-10-23T12:38:20.094Z,83.04
2022-10-23T12:40:53.290Z,83.47
2022-10-23T12:43:27.955Z,82.94
2022-10-23T12:45:59.637Z,82.85
2022-10-23T12:48:28.099Z,83.57
2022-10-23T12:50:57.128Z,83.52
2022-10-23T12:53:26.279Z,83.31
2022-10-23T12:56:01.639Z,83.34
2022-10-23T12:58:32.169Z,84.16
2022-10-23T13:01:07.419Z,83.98
2022-10-23T13:03:36.889Z,84.58
2022-10-23T13:06:06.223Z,84.72
2022-10-23T13:08:36.229Z,84.65
2022-10-23T13:11:43.231Z,84.86
2022-10-23T13:14:15.559Z,85.14
2022-10-23T13:16:45.531Z,85.14
2022-10-23T13:19:26.127Z,85.82
2022-10-23T13:21:54.626Z,85.65
2022-10-23T13:24:24.160Z,85.98
2022-10-23T13:26:52.840Z,86.11
2022-10-23T13:29:22.983Z,86.70
2022-10-23T13:31:53.132Z,86.56
2022-10-23T13:34:31.595Z,86.78
2022-10-23T13:37:03.324Z,86.93
2022-10-23T13:39:33.331Z,86.85
2022-10-23T13:42:07.341Z,87.23
2022-10-23T13:44:37.429Z,87.43
2022-10-23T13:47:07.622Z,87.32
2022-10-23T13:49:36.102Z,87.02
2022-10-23T13:52:04.631Z,87.66
2022-10-23T13:54:33.189Z,87.67
2022-10-23T13:57:01.677Z,87.26
2022-10-23T13:59:30.179Z,87.20
2022-10-23T14:01:59.354Z,86.98
2022-10-23T14:04:29.342Z,87.47
2022-10-23T14:06:58.741Z,87.38
2022-10-23T14:09:27.303Z,87.32
2022-10-23T14:11:55.778Z,86.76
2022-10-23T14:14:24.308Z,87.28
2022-10-23T14:16:53.394Z,87.23
2022-10-23T14:19:21.928Z,87.67
2022-10-23T14:21:51.778Z,87.93
2022-10-23T14:24:20.247Z,87.84
2022-10-23T14:26:48.695Z,88.17
2022-10-23T14:29:23.060Z,88.63
2022-10-23T14:31:52.595Z,88.74
2022-10-23T14:34:21.095Z,88.88
2022-10-23T14:39:25.124Z,88.64
2022-10-23T14:41:53.639Z,88.17
2022-10-23T14:44:22.087Z,88.37
2022-10-23T14:46:50.584Z,88.42
2022-10-23T14:49:19.156Z,88.14
2022-10-23T14:51:48.665Z,88.38
2022-10-23T14:54:19.286Z,87.98
2022-10-23T14:56:47.756Z,88.03
2022-10-23T14:59:16.327Z,87.87
2022-10-23T15:01:48.431Z,88.14
2022-10-23T15:04:17.177Z,88.76
2022-10-23T15:06:47.282Z,88.86
2022-10-23T15:09:16.492Z,88.68
2022-10-23T15:11:46.372Z,89.33
2022-10-23T15:14:15.030Z,89.65
2022-10-23T15:16:43.469Z,89.59
2022-10-23T15:19:17.068Z,89.29
2022-10-23T15:21:48.044Z,89.45
2022-10-23T15:24:16.600Z,89.71
2022-10-23T15:26:47.016Z,89.81
2022-10-23T15:29:16.047Z,89.92
2022-10-23T15:31:50.248Z,90.12
2022-10-23T15:34:20.345Z,89.81
2022-10-23T15:36:49.328Z,90.06
2022-10-23T15:39:19.394Z,89.98
2022-10-23T15:41:56.069Z,90.02
2022-10-23T15:44:26.075Z,89.97
2022-10-23T15:46:57.070Z,89.63
2022-10-23T15:49:26.217Z,89.71
2022-10-23T15:51:54.820Z,89.93
2022-10-23T15:54:23.855Z,90.01
2022-10-23T15:56:55.567Z,89.97
2022-10-23T15:59:26.029Z,89.88
2022-10-23T16:01:55.751Z,89.94
2022-10-23T16:04:24.553Z,89.90
2022-10-23T16:06:53.119Z,89.72
2022-10-23T16:09:21.653Z,89.75
2022-10-23T16:11:50.178Z,89.51
2022-10-23T16:14:20.238Z,89.64
2022-10-23T16:16:48.810Z,89.55
2022-10-23T16:19:17.336Z,89.11
2022-10-23T16:21:45.772Z,89.46
2022-10-23T16:24:14.309Z,89.29
2022-10-23T16:26:42.805Z,89.21
2022-10-23T16:29:12.457Z,89.54
2022-10-23T16:31:42.348Z,89.37
2022-10-23T16:34:11.945Z,89.24
2022-10-23T16:36:40.486Z,89.26
2022-10-23T16:39:10.212Z,89.05
2022-10-23T16:41:57.263Z,89.19
2022-10-23T16:44:30.731Z,89.48
2022-10-23T16:47:02.292Z,89.58
2022-10-23T16:49:32.322Z,89.52
2022-10-23T16:52:00.803Z,89.69
2022-10-23T16:54:29.256Z,89.64
2022-10-23T16:56:58.774Z,89.63
2022-10-23T16:59:27.322Z,89.67
2022-10-23T17:01:55.834Z,89.61
2022-10-23T17:04:25.772Z,89.63
2022-10-23T17:06:54.228Z,89.58
2022-10-23T17:09:23.752Z,89.77
2022-10-23T17:11:53.942Z,89.73
2022-10-23T17:14:25.191Z,89.54
2022-10-23T17:16:55.103Z,89.71
2022-10-23T17:19:47.019Z,89.53
2022-10-23T17:22:16.078Z,89.36
2022-10-23T17:24:47.448Z,89.03
2022-10-23T17:27:18.943Z,89.37
2022-10-23T17:29:47.454Z,89.50
2022-10-23T17:32:15.936Z,89.35
2022-10-23T17:34:46.696Z,89.26
2022-10-23T17:37:15.055Z,89.33
2022-10-23T17:39:43.559Z,89.04
2022-10-23T17:42:12.936Z,89.11
2022-10-23T17:44:41.359Z,89.09
2022-10-23T17:47:09.867Z,89.36
2022-10-23T17:49:39.628Z,88.94
2022-10-23T17:52:14.420Z,89.26
2022-10-23T17:54:43.410Z,89.09
2022-10-23T17:57:11.832Z,89.01
2022-10-23T17:59:40.243Z,88.78
2022-10-23T18:02:13.119Z,88.70
2022-10-23T18:04:41.700Z,88.96
2022-10-23T18:07:11.573Z,88.99
2022-10-23T18:09:40.113Z,89.21
2022-10-23T18:12:08.692Z,89.26
2022-10-23T18:14:37.834Z,89.07
2022-10-23T18:17:06.244Z,88.84
2022-10-23T18:19:34.738Z,89.02
2022-10-23T18:22:03.127Z,89.06
2022-10-23T18:24:33.010Z,88.88
2022-10-23T18:27:01.426Z,88.79
2022-10-23T18:29:30.954Z,88.73
2022-10-23T18:31:59.814Z,89.11
2022-10-23T18:34:28.367Z,88.92
2022-10-23T18:36:56.911Z,89.09
2022-10-23T18:39:27.151Z,89.01
2022-10-23T18:41:58.080Z,88.71
2022-10-23T18:44:29.213Z,88.76
2022-10-23T18:46:59.076Z,88.91
2022-10-23T18:49:27.907Z,88.41
2022-10-23T18:51:56.506Z,88.49
2022-10-23T18:54:24.947Z,88.54
2022-10-23T18:56:53.666Z,88.56
2022-10-23T18:59:24.315Z,88.53
2022-10-23T19:01:52.872Z,88.45
2022-10-23T19:04:21.440Z,88.47
2022-10-23T19:06:51.040Z,88.18
2022-10-23T19:09:19.608Z,88.56
2022-10-23T19:11:48.222Z,88.22
2022-10-23T19:14:16.640Z,88.11
2022-10-23T19:16:54.358Z,88.16
2022-10-23T19:19:24.919Z,87.90
2022-10-23T19:21:53.749Z,87.90
2022-10-23T19:24:25.563Z,87.33
2022-10-23T19:26:54.046Z,87.86
2022-10-23T19:29:23.916Z,87.85
2022-10-23T19:31:54.441Z,88.11
2022-10-23T19:34:25.322Z,88.58
2022-10-23T19:36:54.832Z,89.08
2022-10-23T19:39:26.730Z,89.17
2022-10-23T19:42:05.241Z,89.46
2022-10-23T19:44:34.069Z,89.65
2022-10-23T19:47:04.339Z,89.74
2022-10-23T19:49:32.813Z,89.73
2022-10-23T19:52:01.203Z,89.80
2022-10-23T19:54:30.282Z,90.09
2022-10-23T19:56:58.914Z,90.58
2022-10-23T19:59:27.472Z,90.34
2022-10-23T20:01:56.106Z,91.19
2022-10-23T20:04:26.340Z,91.00
2022-10-23T20:06:54.901Z,90.79
2022-10-23T20:09:24.055Z,91.10
2022-10-23T20:11:55.213Z,91.08
2022-10-23T20:14:23.686Z,91.46
2022-10-23T20:16:55.682Z,91.34
2022-10-23T20:19:25.959Z,91.53
2022-10-23T20:21:54.497Z,91.28
2022-10-23T20:24:23.171Z,91.48
2022-10-23T20:26:55.489Z,91.83
2022-10-23T20:29:24.820Z,91.66
2022-10-23T20:31:53.747Z,91.65
2022-10-23T20:34:22.249Z,91.14
2022-10-23T20:36:52.143Z,91.72
2022-10-23T20:39:25.576Z,91.57
2022-10-23T20:41:55.334Z,91.60
2022-10-23T20:44:24.759Z,91.32
2022-10-23T20:46:53.522Z,91.19
2022-10-23T20:49:22.296Z,91.13
2022-10-23T20:51:55.215Z,91.12
2022-10-23T20:54:24.568Z,91.31
2022-10-23T20:56:52.987Z,90.58
2022-10-23T20:59:21.543Z,90.90
2022-10-23T21:01:53.239Z,91.36
2022-10-23T21:04:26.583Z,91.21
2022-10-23T21:07:09.596Z,91.55
2022-10-23T21:09:39.029Z,90.81
2022-10-23T21:12:08.018Z,90.75
2022-10-23T21:14:36.591Z,91.03
2022-10-23T21:17:05.943Z,90.82
2022-10-23T21:19:34.427Z,90.61
2022-10-23T21:22:04.278Z,90.65
2022-10-23T21:24:32.811Z,90.68
2022-10-23T21:27:01.323Z,90.56
2022-10-23T21:29:29.849Z,90.58
2022-10-23T21:32:01.189Z,90.68
2022-10-23T21:34:31.341Z,90.54
2022-10-23T21:37:12.502Z,90.75
2022-10-23T21:39:43.774Z,90.39
2022-10-23T21:42:12.608Z,90.60
2022-10-23T21:44:41.144Z,90.90
2022-10-23T21:47:09.556Z,90.51
2022-10-23T21:49:38.087Z,90.91
2022-10-23T21:52:06.613Z,90.44
2022-10-23T21:54:35.019Z,90.73
2022-10-23T21:57:04.934Z,90.32
2022-10-23T21:59:36.085Z,90.63
2022-10-23T22:02:05.122Z,91.02
2022-10-23T22:04:33.645Z,90.42
2022-10-23T22:07:02.901Z,90.58
2022-10-23T22:09:32.376Z,91.08
2022-10-23T22:12:01.343Z,90.78
2022-10-23T22:14:31.251Z,90.90
2022-10-23T22:16:59.702Z,90.34
2022-10-23T22:19:28.028Z,90.80
2022-10-23T22:21:59.301Z,90.42
2022-10-23T22:24:27.724Z,90.33
2022-10-23T22:26:57.280Z,90.80
2022-10-23T22:29:27.580Z,90.44
2022-10-23T22:31:57.251Z,90.39
2022-10-23T22:34:48.308Z,90.78
2022-10-23T22:37:15.772Z,89.87
2022-10-23T22:39:44.194Z,89.88
2022-10-23T22:42:12.590Z,89.59
2022-10-23T22:44:40.946Z,90.71
2022-10-23T22:47:10.620Z,90.02
2022-10-23T22:49:39.549Z,89.88
2022-10-23T22:52:07.836Z,89.73
2022-10-23T22:54:36.145Z,90.11
2022-10-23T22:57:04.572Z,89.90
2022-10-23T22:59:32.913Z,89.42
2022-10-23T23:02:01.219Z,89.93
2022-10-23T23:04:38.924Z,89.86
2022-10-23T23:07:08.537Z,90.18
2022-10-23T23:09:38.832Z,89.65
2022-10-23T23:12:07.713Z,89.82
2022-10-23T23:14:36.014Z,90.22
2022-10-23T23:17:04.413Z,89.63
2022-10-23T23:19:34.383Z,89.68
2022-10-23T23:22:03.672Z,90.31
2022-10-23T23:24:32.288Z,89.59
2022-10-23T23:27:00.646Z,90.12
2022-10-23T23:29:29.765Z,90.55
2022-10-23T23:31:58.230Z,90.20
2022-10-23T23:34:26.544Z,89.99
2022-10-23T23:36:56.278Z,90.24
2022-10-23T23:39:26.196Z,89.59
2022-10-23T23:41:54.531Z,89.35
2022-10-23T23:44:23.029Z,88.70
2022-10-23T23:46:51.322Z,88.42
2022-10-23T23:49:19.622Z,88.16
2022-10-23T23:51:47.964Z,87.67
2022-10-23T23:54:17.838Z,87.37
2022-10-23T23:56:46.111Z,87.10
2022-10-23T23:59:14.360Z,87.54
